createdAt,value
2022-12-17T00:01:09.770Z,100441.05
2022-12-17T00:03:57.507Z,100445.11
2022-12-17T00:06:45.195Z,100450.61
2022-12-17T00:09:33.290Z,100445.80
2022-12-17T00:12:22.154Z,100447.63
2022-12-17T00:15:10.096Z,100445.40
2022-12-17T00:17:57.776Z,100444.45
2022-12-17T00:20:45.427Z,100440.73
2022-12-17T00:23:33.838Z,100448.62
2022-12-17T00:26:26.693Z,100451.46
2022-12-17T00:29:14.216Z,100450.29
2022-12-17T00:32:01.630Z,100451.66
2022-12-17T00:34:51.177Z,100450.30
2022-12-17T00:37:38.993Z,100456.39
2022-12-17T00:40:28.004Z,100468.48
2022-12-17T00:43:24.304Z,100474.73
2022-12-17T00:46:14.572Z,100473.23
2022-12-17T00:49:03.045Z,100478.08
2022-12-17T00:51:50.473Z,100486.44
2022-12-17T00:54:39.741Z,100483.95
2022-12-17T00:57:27.466Z,100479.06
2022-12-17T01:00:15.324Z,100477.42
2022-12-17T01:03:03.202Z,100479.93
2022-12-17T01:06:07.550Z,100480.19
2022-12-17T01:09:00.289Z,100484.55
2022-12-17T01:11:49.428Z,100493.29
2022-12-17T01:14:38.062Z,100495.03
2022-12-17T01:17:25.596Z,100493.17
2022-12-17T01:20:13.864Z,100491.84
2022-12-17T01:23:01.742Z,100491.67
2022-12-17T01:25:50.301Z,100501.26
2022-12-17T01:28:43.964Z,100499.67
2022-12-17T01:31:35.324Z,100500.56
2022-12-17T01:34:25.145Z,100498.75
2022-12-17T01:37:16.222Z,100497.73
2022-12-17T01:40:06.284Z,100500.67
2022-12-17T01:43:21.243Z,100502.75
2022-12-17T01:46:10.308Z,100504.34
2022-12-17T01:49:03.492Z,100508.17
2022-12-17T01:51:52.040Z,100520.20
2022-12-17T01:54:41.399Z,100525.88
2022-12-17T01:57:32.677Z,100529.20
2022-12-17T02:00:29.090Z,100530.92
2022-12-17T02:03:18.623Z,100532.79
2022-12-17T02:06:29.786Z,100528.98
2022-12-17T02:09:29.966Z,100527.08
2022-12-17T02:12:30.476Z,100535.20
2022-12-17T02:15:19.155Z,100534.04
2022-12-17T02:18:12.612Z,100534.42
2022-12-17T02:21:05.375Z,100534.50
2022-12-17T02:24:14.612Z,100539.92
2022-12-17T02:27:07.264Z,100540.35
2022-12-17T02:30:21.044Z,100546.98
2022-12-17T02:33:23.509Z,100550.83
2022-12-17T02:36:26.441Z,100545.95
2022-12-17T02:39:14.205Z,100542.58
2022-12-17T02:42:06.985Z,100539.41
2022-12-17T02:44:58.290Z,100541.59
2022-12-17T02:47:48.429Z,100543.92
2022-12-17T02:50:37.589Z,100546.09
2022-12-17T02:53:26.766Z,100546.45
2022-12-17T02:56:14.212Z,100551.66
2022-12-17T02:59:21.910Z,100548.80
2022-12-17T03:02:10.035Z,100545.68
2022-12-17T03:05:10.585Z,100544.41
2022-12-17T03:08:08.064Z,100548.76
2022-12-17T03:11:03.868Z,100550.81
2022-12-17T03:13:54.386Z,100557.40
2022-12-17T03:16:47.309Z,100561.89
2022-12-17T03:19:35.236Z,100556.77
2022-12-17T03:22:25.622Z,100556.04
2022-12-17T03:25:16.086Z,100556.04
2022-12-17T03:28:05.022Z,100547.31
2022-12-17T03:30:52.853Z,100542.23
2022-12-17T03:33:40.699Z,100539.56
2022-12-17T03:36:28.016Z,100546.36
2022-12-17T03:39:17.188Z,100550.40
2022-12-17T03:42:31.485Z,100551.02
2022-12-17T03:45:19.168Z,100558.89
2022-12-17T03:48:06.339Z,100558.31
2022-12-17T03:50:56.830Z,100561.80
2022-12-17T03:53:44.933Z,100560.17
2022-12-17T03:56:32.360Z,100555.89
2022-12-17T03:59:20.042Z,100559.99
2022-12-17T04:02:07.789Z,100563.58
2022-12-17T04:04:55.549Z,100566.21
2022-12-17T04:07:43.589Z,100573.38
2022-12-17T04:10:32.449Z,100569.41
2022-12-17T04:13:21.566Z,100570.11
2022-12-17T04:16:11.323Z,100566.66
2022-12-17T04:18:59.280Z,100565.48
2022-12-17T04:21:47.928Z,100570.77
2022-12-17T04:24:36.078Z,100578.13
2022-12-17T04:27:25.605Z,100578.47
2022-12-17T04:30:13.536Z,100577.50
2022-12-17T04:33:01.160Z,100579.27
2022-12-17T04:35:48.960Z,100580.17
2022-12-17T04:38:36.498Z,100580.63
2022-12-17T04:41:24.469Z,100586.42
2022-12-17T04:44:12.114Z,100588.09
2022-12-17T04:46:59.859Z,100599.11
2022-12-17T04:49:48.415Z,100604.01
2022-12-17T04:52:35.775Z,100607.15
2022-12-17T04:55:24.858Z,100608.02
2022-12-17T04:58:12.129Z,100610.95
2022-12-17T05:01:00.321Z,100615.15
2022-12-17T05:03:49.658Z,100621.71
2022-12-17T05:06:38.416Z,100627.55
2022-12-17T05:09:28.913Z,100628.14
2022-12-17T05:12:16.517Z,100633.42
2022-12-17T05:15:04.740Z,100639.56
2022-12-17T05:17:55.886Z,100642.77
2022-12-17T05:20:45.445Z,100646.42
2022-12-17T05:23:33.907Z,100648.22
2022-12-17T05:26:46.053Z,100651.05
2022-12-17T05:29:33.635Z,100652.97
2022-12-17T05:32:21.053Z,100658.35
2022-12-17T05:35:10.219Z,100663.14
2022-12-17T05:37:58.059Z,100669.02
2022-12-17T05:40:45.706Z,100680.08
2022-12-17T05:43:33.796Z,100686.09
2022-12-17T05:46:22.695Z,100687.52
2022-12-17T05:49:12.013Z,100692.66
2022-12-17T05:51:59.636Z,100697.72
2022-12-17T05:54:48.885Z,100703.69
2022-12-17T05:57:36.288Z,100698.71
2022-12-17T06:00:26.220Z,100698.16
2022-12-17T06:03:24.145Z,100701.30
2022-12-17T06:06:15.879Z,100705.97
2022-12-17T06:09:05.079Z,100713.38
2022-12-17T06:11:56.620Z,100712.41
2022-12-17T06:14:47.020Z,100715.50
2022-12-17T06:17:34.880Z,100710.16
2022-12-17T06:20:24.131Z,100716.29
2022-12-17T06:23:22.619Z,100722.20
2022-12-17T06:26:14.552Z,100729.71
2022-12-17T06:29:02.867Z,100732.80
2022-12-17T06:31:50.585Z,100736.14
2022-12-17T06:34:38.310Z,100739.29
2022-12-17T06:37:43.680Z,100741.57
2022-12-17T06:40:31.575Z,100739.25
2022-12-17T06:43:24.127Z,100742.63
2022-12-17T06:46:11.445Z,100745.60
2022-12-17T06:48:59.381Z,100750.91
2022-12-17T06:51:47.094Z,100748.11
2022-12-17T06:54:34.493Z,100752.08
2022-12-17T06:57:22.279Z,100755.48
2022-12-17T07:00:12.267Z,100757.32
2022-12-17T07:03:03.073Z,100762.43
2022-12-17T07:05:51.164Z,100757.98
2022-12-17T07:08:40.481Z,100752.96
2022-12-17T07:11:28.644Z,100757.58
2022-12-17T07:14:17.226Z,100759.73
2022-12-17T07:17:05.498Z,100765.65
2022-12-17T07:19:53.089Z,100765.98
2022-12-17T07:22:40.320Z,100765.51
2022-12-17T07:25:27.907Z,100761.18
2022-12-17T07:28:15.908Z,100759.69
2022-12-17T07:31:05.317Z,100767.68
2022-12-17T07:33:53.078Z,100773.44
2022-12-17T07:36:40.686Z,100776.89
2022-12-17T07:39:28.417Z,100779.54
2022-12-17T07:42:21.830Z,100780.79
2022-12-17T07:45:09.710Z,100780.11
2022-12-17T07:47:57.431Z,100786.77
2022-12-17T07:50:45.478Z,100789.80
2022-12-17T07:53:33.055Z,100795.06
2022-12-17T07:56:20.748Z,100796.85
2022-12-17T07:59:08.529Z,100804.81
2022-12-17T08:01:56.428Z,100808.27
2022-12-17T08:04:45.753Z,100809.92
2022-12-17T08:07:34.723Z,100818.62
2022-12-17T08:10:23.647Z,100821.07
2022-12-17T08:13:18.645Z,100826.15
2022-12-17T08:16:07.307Z,100829.70
2022-12-17T08:18:55.129Z,100834.52
2022-12-17T08:21:43.272Z,100832.05
2022-12-17T08:24:31.333Z,100838.28
2022-12-17T08:27:19.002Z,100839.39
2022-12-17T08:30:06.882Z,100846.52
2022-12-17T08:32:56.684Z,100850.25
2022-12-17T08:35:44.741Z,100853.10
2022-12-17T08:38:33.618Z,100852.58
2022-12-17T08:41:21.887Z,100851.38
2022-12-17T08:44:23.570Z,100845.54
2022-12-17T08:47:13.903Z,100855.02
2022-12-17T08:50:01.912Z,100853.48
2022-12-17T08:52:49.576Z,100855.49
2022-12-17T08:55:37.225Z,100858.35
2022-12-17T08:58:24.598Z,100870.08
2022-12-17T09:01:13.052Z,100875.03
2022-12-17T09:04:02.158Z,100877.83
2022-12-17T09:06:51.981Z,100879.86
2022-12-17T09:09:41.071Z,100880.73
2022-12-17T09:12:30.832Z,100885.21
2022-12-17T09:15:37.403Z,100886.59
2022-12-17T09:18:25.734Z,100884.46
2022-12-17T09:21:14.907Z,100879.88
2022-12-17T09:24:02.549Z,100880.34
2022-12-17T09:26:50.379Z,100881.80
2022-12-17T09:29:38.465Z,100876.48
2022-12-17T09:32:26.426Z,100880.77
2022-12-17T09:35:16.919Z,100887.51
2022-12-17T09:38:16.714Z,100893.35
2022-12-17T09:41:10.544Z,100892.65
2022-12-17T09:44:23.915Z,100893.35
2022-12-17T09:47:32.823Z,100891.60
2022-12-17T09:50:23.043Z,100888.55
2022-12-17T09:53:12.331Z,100888.63
2022-12-17T09:56:09.255Z,100894.30
2022-12-17T09:58:59.570Z,100896.58
2022-12-17T10:01:53.765Z,100900.95
2022-12-17T10:04:56.485Z,100899.79
2022-12-17T10:07:50.176Z,100897.20
2022-12-17T10:10:52.666Z,100902.30
2022-12-17T10:13:42.807Z,100908.81
2022-12-17T10:17:07.059Z,100915.38
2022-12-17T10:20:01.152Z,100914.93
2022-12-17T10:22:49.231Z,100916.48
2022-12-17T10:25:42.607Z,100917.75
2022-12-17T10:28:43.494Z,100917.75
2022-12-17T10:31:39.542Z,100911.40
2022-12-17T10:34:40.185Z,100909.88
2022-12-17T10:37:38.877Z,100909.88
2022-12-17T10:40:45.192Z,100913.00
2022-12-17T10:43:51.321Z,100911.45
2022-12-17T10:46:49.686Z,100918.21
2022-12-17T10:49:39.419Z,100914.58
2022-12-17T10:52:50.941Z,100909.34
2022-12-17T10:56:23.028Z,100908.86
2022-12-17T10:59:13.496Z,100906.86
2022-12-17T11:02:01.831Z,100902.45
2022-12-17T11:04:57.590Z,100906.72
2022-12-17T11:07:56.206Z,100908.77
2022-12-17T11:10:50.467Z,100918.93
2022-12-17T11:13:50.430Z,100923.11
2022-12-17T11:16:49.641Z,100927.60
2022-12-17T11:20:01.974Z,100935.36
2022-12-17T11:23:19.394Z,100941.61
2022-12-17T11:26:32.702Z,100946.61
2022-12-17T11:29:20.219Z,100945.98
2022-12-17T11:32:40.586Z,100949.27
2022-12-17T11:35:40.214Z,100956.04
2022-12-17T11:38:58.170Z,100955.30
2022-12-17T11:42:26.744Z,100958.00
2022-12-17T11:45:50.622Z,100959.09
2022-12-17T11:49:12.859Z,100956.20
2022-12-17T11:52:32.318Z,100958.23
2022-12-17T11:55:31.278Z,100953.75
2022-12-17T11:58:37.271Z,100953.20
2022-12-17T12:01:36.574Z,100957.70
2022-12-17T12:04:47.621Z,100958.35
2022-12-17T12:07:48.437Z,100964.33
2022-12-17T12:10:53.282Z,100966.23
2022-12-17T12:14:01.243Z,100968.14
2022-12-17T12:17:34.145Z,100970.19
2022-12-17T12:20:54.787Z,100972.95
2022-12-17T12:23:56.014Z,100971.27
2022-12-17T12:26:59.025Z,100968.12
2022-12-17T12:30:03.523Z,100969.29
2022-12-17T12:33:21.833Z,100964.67
2022-12-17T12:36:17.057Z,100968.74
2022-12-17T12:39:12.362Z,100971.10
2022-12-17T12:42:25.507Z,100969.18
2022-12-17T12:45:45.933Z,100973.02
2022-12-17T12:48:53.513Z,100973.48
2022-12-17T12:51:49.796Z,100969.89
2022-12-17T12:55:05.763Z,100972.20
2022-12-17T12:57:56.071Z,100973.67
2022-12-17T13:00:59.170Z,100977.17
2022-12-17T13:03:49.525Z,100979.77
2022-12-17T13:06:41.912Z,100975.73
2022-12-17T13:09:19.088Z,100974.02
2022-12-17T13:12:05.257Z,100974.81
2022-12-17T13:14:44.657Z,100976.83
2022-12-17T13:17:19.094Z,100981.05
2022-12-17T13:19:57.987Z,100980.05
2022-12-17T13:22:33.984Z,100984.20
2022-12-17T13:25:19.882Z,100988.89
2022-12-17T13:27:52.233Z,100991.63
2022-12-17T13:30:54.108Z,100999.96
2022-12-17T13:34:07.248Z,101003.23
2022-12-17T13:37:28.796Z,101004.52
2022-12-17T13:43:24.404Z,101006.47
2022-12-17T13:45:56.115Z,101012.86
2022-12-17T13:48:29.572Z,101008.92
2022-12-17T13:51:07.902Z,101010.63
2022-12-17T13:53:39.838Z,101012.82
2022-12-17T13:56:12.301Z,101014.52
2022-12-17T13:58:42.643Z,101019.36
2022-12-17T14:01:28.411Z,101020.79
2022-12-17T14:04:06.935Z,101026.89
2022-12-17T14:06:52.384Z,101035.65
2022-12-17T14:09:43.461Z,101041.30
2022-12-17T14:12:27.231Z,101042.08
2022-12-17T14:15:01.628Z,101045.66
2022-12-17T14:17:38.845Z,101045.93
2022-12-17T14:20:22.014Z,101045.71
2022-12-17T14:23:00.264Z,101046.81
2022-12-17T14:25:40.584Z,101050.20
2022-12-17T14:28:36.211Z,101051.95
2022-12-17T14:31:28.372Z,101054.88
2022-12-17T14:34:17.935Z,101056.61
2022-12-17T14:36:54.205Z,101064.79
2022-12-17T14:39:30.356Z,101077.17
2022-12-17T14:42:27.478Z,101080.25
2022-12-17T14:45:06.786Z,101083.38
2022-12-17T14:47:38.139Z,101091.55
2022-12-17T14:50:37.303Z,101090.20
2022-12-17T14:53:26.592Z,101095.39
2022-12-17T14:55:58.940Z,101100.97
2022-12-17T14:58:28.294Z,101099.16
2022-12-17T15:01:09.257Z,101097.35
2022-12-17T15:03:48.689Z,101097.52
2022-12-17T15:06:20.322Z,101095.77
2022-12-17T15:08:51.532Z,101098.73
2022-12-17T15:11:23.236Z,101099.27
2022-12-17T15:13:56.254Z,101103.89
2022-12-17T15:16:25.676Z,101102.44
2022-12-17T15:18:55.552Z,101100.55
2022-12-17T15:21:26.326Z,101103.70
2022-12-17T15:23:55.321Z,101106.88
2022-12-17T15:26:25.497Z,101110.31
2022-12-17T15:28:53.208Z,101107.81
2022-12-17T15:31:36.198Z,101112.19
2022-12-17T15:37:21.112Z,101113.76
2022-12-17T15:39:53.615Z,101115.75
2022-12-17T15:43:30.475Z,101117.77
2022-12-17T15:46:02.047Z,101120.67
2022-12-17T15:48:32.946Z,101119.33
2022-12-17T15:51:02.190Z,101115.48
2022-12-17T15:53:33.180Z,101118.14
2022-12-17T15:56:04.428Z,101119.93
2022-12-17T15:58:35.546Z,101117.19
2022-12-17T16:01:07.156Z,101115.71
2022-12-17T16:03:39.061Z,101115.13
2022-12-17T16:06:10.010Z,101115.40
2022-12-17T16:08:41.512Z,101121.64
2022-12-17T16:11:16.775Z,101123.35
2022-12-17T16:13:54.984Z,101125.97
2022-12-17T16:16:26.240Z,101127.81
2022-12-17T16:18:55.609Z,101131.23
2022-12-17T16:21:27.681Z,101131.52
2022-12-17T16:24:02.531Z,101135.93
2022-12-17T16:26:34.948Z,101138.36
2022-12-17T16:29:06.970Z,101143.36
2022-12-17T16:31:38.894Z,101143.43
2022-12-17T16:34:12.014Z,101146.00
2022-12-17T16:36:41.478Z,101148.73
2022-12-17T16:39:19.087Z,101155.10
2022-12-17T16:41:52.101Z,101160.81
2022-12-17T16:44:23.667Z,101164.09
2022-12-17T16:46:54.062Z,101165.64
2022-12-17T16:49:25.902Z,101168.38
2022-12-17T16:52:00.567Z,101170.69
2022-12-17T16:54:35.289Z,101168.19
2022-12-17T16:57:05.771Z,101172.16
2022-12-17T16:59:35.885Z,101173.63
2022-12-17T17:02:10.690Z,101181.02
2022-12-17T17:04:41.771Z,101178.88
2022-12-17T17:07:11.272Z,101179.79
2022-12-17T17:09:42.275Z,101184.15
2022-12-17T17:12:13.201Z,101182.89
2022-12-17T17:14:44.749Z,101184.25
2022-12-17T17:17:14.157Z,101188.20
2022-12-17T17:19:45.590Z,101189.14
2022-12-17T17:22:14.435Z,101195.70
2022-12-17T17:24:44.961Z,101201.19
2022-12-17T17:27:13.860Z,101200.08
2022-12-17T17:29:42.931Z,101206.27
2022-12-17T17:32:14.006Z,101208.45
2022-12-17T17:34:43.811Z,101209.24
2022-12-17T17:37:16.268Z,101210.84
2022-12-17T17:39:47.053Z,101211.52
2022-12-17T17:42:17.000Z,101209.31
2022-12-17T17:44:50.010Z,101206.77
2022-12-17T17:47:22.014Z,101204.70
2022-12-17T17:49:53.615Z,101199.02
2022-12-17T17:52:26.830Z,101197.88
2022-12-17T17:54:58.501Z,101198.20
2022-12-17T17:57:27.819Z,101200.80
2022-12-17T17:59:57.717Z,101199.34
2022-12-17T18:02:27.718Z,101197.52
2022-12-17T18:05:00.024Z,101206.13
2022-12-17T18:07:28.840Z,101207.21
2022-12-17T18:10:00.228Z,101210.40
2022-12-17T18:12:50.896Z,101214.70
2022-12-17T18:15:20.550Z,101221.46
2022-12-17T18:17:53.158Z,101235.06
2022-12-17T18:20:29.935Z,101232.09
2022-12-17T18:22:59.460Z,101238.71
2022-12-17T18:25:37.636Z,101237.77
2022-12-17T18:28:10.219Z,101247.19
2022-12-17T18:30:41.248Z,101249.48
2022-12-17T18:33:15.028Z,101253.00
2022-12-17T18:35:45.919Z,101257.73
2022-12-17T18:38:18.509Z,101261.20
2022-12-17T18:40:49.849Z,101267.48
2022-12-17T18:43:26.106Z,101273.22
2022-12-17T18:45:56.950Z,101276.80
2022-12-17T18:48:27.410Z,101280.50
2022-12-17T18:51:07.120Z,101283.23
2022-12-17T18:53:44.900Z,101279.73
2022-12-17T18:56:31.629Z,101279.92
2022-12-17T18:59:07.060Z,101280.81
2022-12-17T19:01:39.190Z,101278.27
2022-12-17T19:04:13.198Z,101278.37
2022-12-17T19:06:45.669Z,101280.41
2022-12-17T19:09:22.412Z,101286.27
2022-12-17T19:11:54.218Z,101289.74
2022-12-17T19:14:26.308Z,101292.73
2022-12-17T19:16:58.720Z,101298.10
2022-12-17T19:19:29.143Z,101293.70
2022-12-17T19:22:01.187Z,101294.36
2022-12-17T19:24:34.219Z,101296.85
2022-12-17T19:27:05.129Z,101295.71
2022-12-17T19:29:35.061Z,101305.59
2022-12-17T19:32:05.751Z,101307.64
2022-12-17T19:34:35.621Z,101307.33
2022-12-17T19:37:06.835Z,101313.35
2022-12-17T19:39:39.700Z,101318.93
2022-12-17T19:45:10.297Z,101325.05
2022-12-17T19:47:57.943Z,101328.51
2022-12-17T19:50:30.160Z,101330.23
2022-12-17T19:53:07.777Z,101339.38
2022-12-17T19:55:37.182Z,101337.65
2022-12-17T19:58:08.000Z,101336.93
2022-12-17T20:00:40.965Z,101337.55
2022-12-17T20:03:11.761Z,101336.55
2022-12-17T20:05:47.155Z,101334.33
2022-12-17T20:08:22.325Z,101331.65
2022-12-17T20:10:52.772Z,101339.66
2022-12-17T20:13:26.218Z,101338.98
2022-12-17T20:16:06.062Z,101341.55
2022-12-17T20:18:38.690Z,101347.41
2022-12-17T20:21:08.428Z,101346.96
2022-12-17T20:23:40.058Z,101353.20
2022-12-17T20:26:14.088Z,101360.91
2022-12-17T20:28:46.773Z,101363.61
2022-12-17T20:31:18.452Z,101367.17
2022-12-17T20:33:48.742Z,101373.56
2022-12-17T20:36:24.233Z,101377.89
2022-12-17T20:38:58.987Z,101380.29
2022-12-17T20:42:21.492Z,101386.00
2022-12-17T20:44:53.637Z,101387.45
2022-12-17T20:47:23.355Z,101385.33
2022-12-17T20:49:53.751Z,101386.39
2022-12-17T20:52:26.287Z,101386.90
2022-12-17T20:54:55.999Z,101390.24
2022-12-17T20:57:26.661Z,101398.33
2022-12-17T20:59:57.639Z,101393.84
2022-12-17T21:02:28.577Z,101398.42
2022-12-17T21:04:59.330Z,101401.99
2022-12-17T21:07:29.018Z,101404.76
2022-12-17T21:09:58.900Z,101404.49
2022-12-17T21:12:47.886Z,101409.14
2022-12-17T21:15:18.582Z,101410.64
2022-12-17T21:17:49.886Z,101415.44
2022-12-17T21:20:18.909Z,101409.84
2022-12-17T21:22:50.070Z,101408.70
2022-12-17T21:25:19.420Z,101411.02
2022-12-17T21:27:49.083Z,101412.30
2022-12-17T21:30:19.871Z,101415.30
2022-12-17T21:32:49.948Z,101417.24
2022-12-17T21:35:19.365Z,101423.95
2022-12-17T21:37:48.859Z,101429.09
2022-12-17T21:40:20.200Z,101431.80
2022-12-17T21:43:40.022Z,101436.39
2022-12-17T21:46:11.798Z,101438.20
2022-12-17T21:48:45.358Z,101447.61
2022-12-17T21:51:15.617Z,101451.12
2022-12-17T21:53:46.013Z,101452.05
2022-12-17T21:56:17.931Z,101452.77
2022-12-17T21:58:50.053Z,101453.40
2022-12-17T22:01:26.810Z,101454.60
2022-12-17T22:03:59.370Z,101455.49
2022-12-17T22:06:42.481Z,101457.53
2022-12-17T22:10:11.617Z,101458.40
2022-12-17T22:13:02.019Z,101462.04
2022-12-17T22:15:38.675Z,101459.95
2022-12-17T22:18:18.356Z,101459.16
2022-12-17T22:21:00.854Z,101463.45
2022-12-17T22:23:31.190Z,101466.48
2022-12-17T22:26:01.404Z,101463.20
2022-12-17T22:28:30.364Z,101470.10
2022-12-17T22:31:23.553Z,101473.42
2022-12-17T22:34:49.769Z,101474.25
2022-12-17T22:40:19.235Z,101478.20
2022-12-17T22:44:29.081Z,101478.39
2022-12-17T22:44:45.552Z,101481.73
2022-12-17T22:45:32.567Z,101490.64
2022-12-17T22:48:03.018Z,101496.48
2022-12-17T22:50:39.168Z,101501.27
2022-12-17T22:53:27.920Z,101507.39
2022-12-17T22:56:14.709Z,101507.32
2022-12-17T22:58:51.606Z,101511.27
2022-12-17T23:01:23.374Z,101517.29
2022-12-17T23:03:57.256Z,101516.70
2022-12-17T23:06:27.202Z,101517.92
2022-12-17T23:08:59.401Z,101518.29
2022-12-17T23:11:30.058Z,101513.21
2022-12-17T23:14:03.220Z,101516.98
2022-12-17T23:16:33.212Z,101518.71
2022-12-17T23:19:02.555Z,101523.23
2022-12-17T23:21:32.474Z,101524.72
2022-12-17T23:24:02.447Z,101530.09
2022-12-17T23:26:36.870Z,101528.52
2022-12-17T23:29:14.918Z,101534.80
2022-12-17T23:31:48.605Z,101539.70
2022-12-17T23:34:17.893Z,101542.45
2022-12-17T23:36:47.808Z,101544.25
2022-12-17T23:39:18.416Z,101546.85
2022-12-17T23:46:21.991Z,101554.70
2022-12-17T23:48:54.243Z,101560.16
2022-12-17T23:51:24.901Z,101566.53
2022-12-17T23:53:54.990Z,101568.15
2022-12-17T23:56:29.076Z,101570.82
2022-12-17T23:59:00.717Z,101574.76
